createdAt,value
2022-12-09T00:03:13.645Z,36.60
2022-12-09T00:08:20.358Z,35.85
2022-12-09T00:13:23.818Z,35.70
2022-12-09T00:18:26.083Z,36.90
2022-12-09T00:23:28.381Z,36.13
2022-12-09T00:28:31.903Z,38.72
2022-12-09T00:33:35.656Z,34.30
2022-12-09T00:38:38.639Z,33.92
2022-12-09T00:43:42.789Z,32.70
2022-12-09T00:48:47.585Z,28.38
2022-12-09T00:53:53.916Z,27.13
2022-12-09T00:58:58.626Z,24.65
2022-12-09T01:04:02.580Z,22.35
2022-12-09T01:09:05.256Z,22.05
2022-12-09T01:14:09.006Z,22.45
2022-12-09T01:19:14.120Z,19.40
2022-12-09T01:24:18.217Z,21.80
2022-12-09T01:29:21.809Z,19.70
2022-12-09T01:34:24.178Z,20.27
2022-12-09T01:39:26.755Z,17.40
2022-12-09T01:44:32.897Z,16.67
2022-12-09T01:49:41.888Z,16.77
2022-12-09T01:54:51.237Z,17.90
2022-12-09T01:59:55.104Z,16.90
2022-12-09T02:04:57.937Z,16.48
2022-12-09T02:10:00.720Z,16.23
2022-12-09T02:15:07.566Z,15.20
2022-12-09T02:20:17.336Z,17.30
2022-12-09T02:25:30.272Z,17.90
2022-12-09T02:30:39.561Z,17.67
2022-12-09T02:35:49.233Z,17.50
2022-12-09T02:41:04.864Z,18.52
2022-12-09T02:46:10.141Z,20.10
2022-12-09T02:51:19.012Z,21.67
2022-12-09T02:56:23.359Z,22.00
2022-12-09T03:01:32.356Z,22.92
2022-12-09T03:06:42.800Z,25.17
2022-12-09T03:11:46.035Z,29.45
2022-12-09T03:16:54.561Z,29.23
2022-12-09T03:22:01.647Z,32.30
2022-12-09T03:27:07.719Z,32.88
2022-12-09T03:32:15.737Z,37.65
2022-12-09T03:37:21.904Z,36.67
2022-12-09T03:42:34.328Z,34.58
2022-12-09T03:47:37.571Z,35.63
2022-12-09T03:52:44.414Z,33.20
2022-12-09T03:57:49.073Z,31.58
2022-12-09T04:02:55.418Z,29.23
2022-12-09T04:07:59.510Z,27.83
2022-12-09T04:13:01.951Z,26.98
2022-12-09T04:18:04.217Z,25.75
2022-12-09T04:23:06.605Z,23.55
2022-12-09T04:28:10.282Z,25.25
2022-12-09T04:33:12.668Z,24.90
2022-12-09T04:38:14.908Z,27.17
2022-12-09T04:43:18.344Z,25.30
2022-12-09T04:48:20.480Z,26.23
2022-12-09T04:53:27.754Z,24.00
2022-12-09T04:58:31.915Z,25.98
2022-12-09T05:03:34.444Z,21.85
2022-12-09T05:08:36.966Z,20.33
2022-12-09T05:13:40.747Z,23.23
2022-12-09T05:18:43.193Z,22.85
2022-12-09T05:23:48.877Z,21.52
2022-12-09T05:28:53.675Z,28.17
2022-12-09T05:34:02.341Z,20.80
2022-12-09T05:39:04.937Z,19.67
2022-12-09T05:44:08.858Z,21.80
2022-12-09T05:49:11.153Z,21.40
2022-12-09T05:54:13.635Z,22.02
2022-12-09T05:59:20.539Z,22.98
2022-12-09T06:04:23.933Z,22.75
2022-12-09T06:09:29.992Z,21.73
2022-12-09T06:14:36.567Z,22.52
2022-12-09T06:19:40.221Z,23.15
2022-12-09T06:24:42.846Z,20.58
2022-12-09T06:29:45.137Z,21.98
2022-12-09T06:34:48.690Z,22.13
2022-12-09T06:39:50.907Z,24.05
2022-12-09T06:44:53.377Z,19.23
2022-12-09T06:50:07.081Z,20.80
2022-12-09T06:55:11.333Z,20.83
2022-12-09T07:00:15.352Z,21.52
2022-12-09T07:05:19.448Z,20.98
2022-12-09T07:10:22.314Z,21.42
2022-12-09T07:15:24.714Z,20.73
2022-12-09T07:20:28.707Z,23.73
2022-12-09T07:25:31.880Z,21.85
2022-12-09T07:30:34.080Z,23.98
2022-12-09T07:35:38.052Z,23.67
2022-12-09T07:46:06.856Z,22.88
2022-12-09T07:56:21.163Z,23.48
2022-12-09T08:01:25.318Z,25.23
2022-12-09T08:06:38.015Z,26.17
2022-12-09T08:22:13.615Z,25.00
2022-12-09T08:27:16.210Z,28.67
2022-12-09T08:32:18.918Z,30.15
2022-12-09T08:37:22.963Z,30.70
2022-12-09T08:42:25.500Z,27.00
2022-12-09T08:47:36.477Z,28.85
2022-12-09T08:52:40.847Z,28.52
2022-12-09T08:57:43.792Z,30.80
2022-12-09T09:13:18.902Z,33.85
2022-12-09T09:18:21.345Z,37.88
2022-12-09T09:23:23.557Z,38.38
2022-12-09T09:28:30.916Z,41.45
2022-12-09T09:33:41.770Z,47.22
2022-12-09T09:38:44.087Z,45.22
2022-12-09T09:43:47.947Z,45.65
2022-12-09T09:48:51.112Z,42.85
2022-12-09T09:53:55.361Z,41.25
2022-12-09T09:59:17.755Z,38.63
2022-12-09T10:04:27.379Z,37.78
2022-12-09T10:09:39.682Z,34.30
2022-12-09T10:14:50.519Z,32.47
2022-12-09T10:19:56.921Z,31.00
2022-12-09T10:25:02.420Z,29.35
2022-12-09T10:30:12.247Z,27.58
2022-12-09T10:35:17.580Z,30.52
2022-12-09T10:40:27.157Z,26.00
2022-12-09T10:51:07.179Z,26.50
2022-12-09T10:56:10.344Z,28.88
2022-12-09T11:11:49.601Z,25.90
2022-12-09T11:16:54.638Z,23.60
2022-12-09T11:27:36.792Z,20.48
2022-12-09T11:32:58.893Z,21.30
2022-12-09T11:43:33.841Z,18.20
2022-12-09T11:54:03.277Z,16.52
2022-12-09T11:59:20.853Z,14.77
2022-12-09T12:04:28.178Z,15.68
2022-12-09T12:09:40.522Z,17.80
2022-12-09T12:14:45.359Z,16.05
2022-12-09T12:19:51.484Z,16.83
2022-12-09T12:25:19.660Z,14.63
2022-12-09T12:30:26.184Z,17.85
2022-12-09T12:35:45.528Z,15.73
2022-12-09T12:40:59.291Z,16.05
2022-12-09T12:51:41.243Z,14.80
2022-12-09T12:56:50.703Z,14.77
2022-12-09T13:01:58.749Z,13.50
2022-12-09T13:07:07.255Z,12.70
2022-12-09T13:12:15.966Z,13.55
2022-12-09T13:17:20.488Z,14.10
2022-12-09T13:22:31.433Z,13.40
2022-12-09T13:27:43.049Z,11.77
2022-12-09T13:33:04.919Z,13.80
2022-12-09T13:38:26.281Z,14.20
2022-12-09T13:43:31.623Z,10.70
2022-12-09T13:48:45.906Z,12.23
2022-12-09T13:54:01.043Z,11.68
2022-12-09T13:59:40.180Z,14.30
2022-12-09T14:04:54.077Z,10.18
2022-12-09T14:09:59.052Z,11.93
2022-12-09T14:15:02.525Z,7.13
2022-12-09T14:20:19.795Z,7.57
2022-12-09T14:25:55.270Z,11.10
2022-12-09T14:31:03.437Z,7.47
2022-12-09T14:36:24.249Z,4.65
2022-12-09T14:41:32.299Z,6.00
2022-12-09T14:46:39.138Z,5.63
2022-12-09T14:51:47.991Z,7.65
2022-12-09T14:56:52.352Z,7.18
2022-12-09T15:01:57.642Z,8.48
2022-12-09T15:07:14.169Z,7.25
2022-12-09T15:12:16.696Z,8.30
2022-12-09T15:17:32.911Z,6.82
2022-12-09T15:22:40.648Z,7.95
2022-12-09T15:27:43.064Z,7.45
2022-12-09T15:32:46.650Z,8.77
2022-12-09T15:37:53.877Z,8.68
2022-12-09T15:43:01.132Z,7.10
2022-12-09T15:48:09.653Z,6.53
2022-12-09T15:53:25.036Z,6.72
2022-12-09T15:58:32.113Z,9.30
2022-12-09T16:03:36.235Z,7.00
2022-12-09T16:08:45.537Z,6.70
2022-12-09T16:14:03.152Z,8.38
2022-12-09T16:19:05.973Z,8.07
2022-12-09T16:24:14.923Z,11.05
2022-12-09T16:29:22.814Z,11.77
2022-12-09T16:34:27.798Z,13.57
2022-12-09T16:39:40.860Z,17.58
2022-12-09T16:44:44.119Z,20.42
2022-12-09T16:49:49.849Z,21.70
2022-12-09T16:54:55.090Z,21.02
2022-12-09T16:59:58.976Z,15.77
2022-12-09T17:05:02.654Z,27.00
2022-12-09T17:10:10.976Z,20.33
2022-12-09T17:15:17.169Z,24.98
2022-12-09T17:20:20.716Z,25.02
2022-12-09T17:25:30.057Z,25.55
2022-12-09T17:30:35.856Z,20.42
2022-12-09T17:35:40.091Z,21.75
2022-12-09T17:40:47.019Z,19.52
2022-12-09T17:45:50.828Z,24.42
2022-12-09T17:50:54.538Z,24.40
2022-12-09T17:55:58.173Z,24.08
2022-12-09T18:01:00.474Z,21.10
2022-12-09T18:06:04.787Z,25.75
2022-12-09T18:11:12.800Z,17.58
2022-12-09T18:16:20.294Z,20.02
2022-12-09T18:21:24.138Z,23.45
2022-12-09T18:26:32.037Z,19.45
2022-12-09T18:31:35.816Z,30.20
2022-12-09T18:36:39.379Z,32.72
2022-12-09T18:41:48.880Z,34.70
2022-12-09T18:46:52.374Z,33.60
2022-12-09T18:51:57.289Z,27.25
2022-12-09T18:57:03.917Z,22.10
2022-12-09T19:02:07.279Z,25.10
2022-12-09T19:07:17.521Z,20.02
2022-12-09T19:17:50.258Z,16.42
2022-12-09T19:23:00.614Z,16.00
2022-12-09T19:28:17.902Z,10.60
2022-12-09T19:33:27.021Z,10.77
2022-12-09T19:38:32.156Z,7.93
2022-12-09T19:43:38.968Z,10.55
2022-12-09T19:48:49.848Z,9.23
2022-12-09T19:53:55.870Z,13.68
2022-12-09T19:59:04.725Z,8.90
2022-12-09T20:04:46.519Z,8.63
2022-12-09T20:09:32.858Z,10.02
2022-12-09T20:14:37.644Z,9.23
2022-12-09T20:19:41.339Z,9.50
2022-12-09T20:24:48.265Z,8.45
2022-12-09T20:35:21.712Z,6.07
2022-12-09T20:45:51.520Z,8.02
2022-12-09T20:50:57.070Z,6.78
2022-12-09T20:56:01.466Z,9.55
2022-12-09T21:01:08.965Z,9.07
2022-12-09T21:06:21.050Z,6.93
2022-12-09T21:11:26.654Z,5.45
2022-12-09T21:16:32.028Z,4.47
2022-12-09T21:21:39.313Z,4.55
2022-12-09T21:26:43.442Z,7.00
2022-12-09T21:31:50.766Z,5.78
2022-12-09T21:36:55.945Z,6.00
2022-12-09T21:41:59.964Z,6.78
2022-12-09T21:47:02.580Z,6.70
2022-12-09T21:52:07.244Z,6.63
2022-12-09T21:57:10.248Z,7.68
2022-12-09T22:02:13.435Z,10.55
2022-12-09T22:07:17.232Z,11.30
2022-12-09T22:12:24.061Z,14.02
2022-12-09T22:17:26.941Z,15.95
2022-12-09T22:22:33.321Z,16.17
2022-12-09T22:27:35.433Z,14.13
2022-12-09T22:32:41.151Z,13.75
2022-12-09T22:37:46.265Z,13.63
2022-12-09T22:42:56.899Z,13.35
2022-12-09T22:47:58.993Z,14.30
2022-12-09T22:53:02.440Z,14.55
2022-12-09T22:58:05.000Z,14.05
2022-12-09T23:03:07.189Z,11.02
2022-12-09T23:08:10.823Z,10.85
2022-12-09T23:13:12.939Z,15.10
2022-12-09T23:18:15.257Z,16.63
2022-12-09T23:23:18.829Z,16.00
2022-12-09T23:28:22.841Z,13.48
2022-12-09T23:33:25.114Z,11.95
2022-12-09T23:43:58.509Z,12.25
2022-12-09T23:49:00.568Z,16.90
2022-12-09T23:54:04.682Z,11.63
2022-12-09T23:59:10.592Z,11.82
